To NAV CANADA Home Page Login to a new session Search on AWWS site Disclaimer Vers la page française équivalente Tips FAQ What's new on the site To the Forecasts and Observations / NOTAM section To "File a Flight Plan" website Publications and other links Update of the User's profile FIC Telephone Numbers My Weather Data Folder Route Weather Data Regional Weather Data Local Weather Data To the Forecasts and Observations / NOTAM section
Request Generated 04/12/2021 at 04:25:51 UTC . Weather information available at that time is displayed.

METAR/TAF

If you find any discrepancies between the coded METAR/TAF and the plain language METAR/TAF please use the coded METAR/TAF. LWIS bulletins are not decoded in plain language.

CALGARY/YYC CALGARY INTL/AB    

METAR CYYC 120400Z 07007KT 5SM VCSH BKN038TCU OVC070 00/M09 A3025 RMK TCU6AC2 V VRB 3 - 7 / SH ALQDS SLP295=
METAR
LOCATION
CYYC - CALGARY/YYC CALGARY INTL/AB
DATE - TIME
12 APRIL 2021 - 0400 UTC
WIND
70 TRUE @ 7  KNOTS
VISIBILITY
5 STAT.  MILES
RUNWAY VISUAL RANGE
WEATHER
IN THE VICINITY
SHOWER
CLOUDINESS
BROKEN CLOUDS (5/8 - 7/8) 3800  FT
TOWERING CUMULUS
OVERCAST 7000  FT
TEMP / DEWPOINT
0 C / -9 C
ALTIMETER
30.25 IN HG
RECENT WEATHER
WIND SHEAR

METAR CYYC 120300Z 12007KT 5SM VCSH BKN031 02/M10 A3022 RMK SC7 SH S - W SLP285
METAR
LOCATION
CYYC - CALGARY/YYC CALGARY INTL/AB
DATE - TIME
12 APRIL 2021 - 0300 UTC
WIND
120 TRUE @ 7  KNOTS
VISIBILITY
5 STAT.  MILES
RUNWAY VISUAL RANGE
WEATHER
IN THE VICINITY
SHOWER
CLOUDINESS
BROKEN CLOUDS (5/8 - 7/8) 3100  FT
TEMP / DEWPOINT
2 C / -10 C
ALTIMETER
30.22 IN HG
RECENT WEATHER
WIND SHEAR

METAR CYYC 120200Z 10006KT 7SM VCSH SCT050TCU BKN071 02/M11 A3020 RMK TCU4AC2 S SSW - N SLP278=
METAR
LOCATION
CYYC - CALGARY/YYC CALGARY INTL/AB
DATE - TIME
12 APRIL 2021 - 0200 UTC
WIND
100 TRUE @ 6  KNOTS
VISIBILITY
7 STAT.  MILES
RUNWAY VISUAL RANGE
WEATHER
IN THE VICINITY
SHOWER
CLOUDINESS
SCATTERED CLOUDS (3/8 - 4/8) 5000  FT
TOWERING CUMULUS
BROKEN CLOUDS (5/8 - 7/8) 7100  FT
TEMP / DEWPOINT
2 C / -11 C
ALTIMETER
30.20 IN HG
RECENT WEATHER
WIND SHEAR

TAF AMD CYYC 120305Z 1203/1224 10008KT P6SM SCT040 BKN070 TEMPO 1203/1206 3SM -SHSN BKN030 FM120600 04006KT P6SM FEW070 SCT120 FM121200 35006KT P6SM FEW015 SCT030 TEMPO 1212/1215 P6SM VCSH BKN030 BECMG 1216/1218 01012KT FM122000 02015KT P6SM SCT060 RMK NXT FCST BY 120600Z=
AMENDED TAF
LOCATION

CYYC - CALGARY/YYC CALGARY INTL/AB
VALIDITY [UTC]
12 APR - 0305 to
13 APR - 0000
 
TIMES
[UTC]
WIND
[DEGREES TRUE]
VISIBILITY
[STAT. MILES]
WEATHER
CLOUDINESS
[FEET AGL]
 
12 APR - 0300 to
12 APR - 0600
100 @ 8 KNOTS
6+
NIL
4000 SCATTERED
7000 BROKEN
TEMPORARY CHANGES
12 APR - 0300 to
12 APR - 0600
 
3
LIGHT SNOW SHOWER
3000 BROKEN
 
12 APR - 0600 to
12 APR - 1200
40 @ 6 KNOTS
6+
NIL
7000 FEW
12000 SCATTERED
 
12 APR - 1200 to
12 APR - 2000
350 @ 6 KNOTS
6+
NIL
1500 FEW
3000 SCATTERED
TEMPORARY CHANGES
12 APR - 1200 to
12 APR - 1500
 
6+
SHOWER IN THE VICINITY
3000 BROKEN
BECOMING
12 APR - 1600 to
12 APR - 1800
10 @ 12 KNOTS
 
 
 
 
12 APR - 2000 to
13 APR - 0000
20 @ 15 KNOTS
6+
NIL
6000 SCATTERED
REMARKS
THE NEXT FORECAST WILL BE ISSUED BY 0600 UTC ON DAY 12


Your time UTC time
Weather data provided by Environment Canada and NAV CANADA